sensor_id;sensor_type;location;lat;lon;timestamp;P1;durP1;ratioP1;P2;durP2;ratioP2
19291;SDS011;9779;51.756;7.450;2022-12-05T00:01:50;27.33;;;17.00;;
19291;SDS011;9779;51.756;7.450;2022-12-05T00:04:16;30.10;;;18.23;;
19291;SDS011;9779;51.756;7.450;2022-12-05T00:06:41;29.73;;;17.80;;
19291;SDS011;9779;51.756;7.450;2022-12-05T00:09:08;32.63;;;18.77;;
19291;SDS011;9779;51.756;7.450;2022-12-05T00:11:37;28.93;;;18.10;;
19291;SDS011;9779;51.756;7.450;2022-12-05T00:14:05;30.30;;;17.60;;
19291;SDS011;9779;51.756;7.450;2022-12-05T00:16:34;32.83;;;18.43;;
19291;SDS011;9779;51.756;7.450;2022-12-05T00:19:02;32.33;;;19.50;;
19291;SDS011;9779;51.756;7.450;2022-12-05T00:21:30;32.40;;;19.63;;
19291;SDS011;9779;51.756;7.450;2022-12-05T00:23:58;34.50;;;19.70;;
19291;SDS011;9779;51.756;7.450;2022-12-05T00:26:24;34.30;;;18.53;;
19291;SDS011;9779;51.756;7.450;2022-12-05T00:28:51;36.90;;;19.73;;
19291;SDS011;9779;51.756;7.450;2022-12-05T00:31:21;35.77;;;19.37;;
19291;SDS011;9779;51.756;7.450;2022-12-05T00:33:48;32.60;;;19.30;;
19291;SDS011;9779;51.756;7.450;2022-12-05T00:36:18;34.00;;;17.50;;
19291;SDS011;9779;51.756;7.450;2022-12-05T00:38:47;32.33;;;18.50;;
19291;SDS011;9779;51.756;7.450;2022-12-05T00:41:23;33.53;;;19.50;;
19291;SDS011;9779;51.756;7.450;2022-12-05T00:43:50;35.93;;;19.07;;
19291;SDS011;9779;51.756;7.450;2022-12-05T00:46:19;34.07;;;19.67;;
19291;SDS011;9779;51.756;7.450;2022-12-05T00:48:46;35.87;;;19.63;;
19291;SDS011;9779;51.756;7.450;2022-12-05T00:51:13;32.63;;;18.93;;
19291;SDS011;9779;51.756;7.450;2022-12-05T00:53:47;29.73;;;18.33;;
19291;SDS011;9779;51.756;7.450;2022-12-05T00:56:15;35.13;;;18.67;;
19291;SDS011;9779;51.756;7.450;2022-12-05T00:58:42;32.37;;;18.87;;
19291;SDS011;9779;51.756;7.450;2022-12-05T01:01:10;36.60;;;19.67;;
19291;SDS011;9779;51.756;7.450;2022-12-05T01:03:40;33.53;;;19.03;;
19291;SDS011;9779;51.756;7.450;2022-12-05T01:06:06;28.90;;;18.17;;
19291;SDS011;9779;51.756;7.450;2022-12-05T01:08:33;31.20;;;19.23;;
19291;SDS011;9779;51.756;7.450;2022-12-05T01:10:59;33.23;;;19.60;;
19291;SDS011;9779;51.756;7.450;2022-12-05T01:13:25;35.87;;;19.40;;
19291;SDS011;9779;51.756;7.450;2022-12-05T01:15:52;28.40;;;16.93;;
19291;SDS011;9779;51.756;7.450;2022-12-05T01:18:19;33.17;;;17.63;;
19291;SDS011;9779;51.756;7.450;2022-12-05T01:20:45;30.03;;;18.27;;
19291;SDS011;9779;51.756;7.450;2022-12-05T01:23:11;28.50;;;17.90;;
19291;SDS011;9779;51.756;7.450;2022-12-05T01:25:38;31.07;;;17.83;;
19291;SDS011;9779;51.756;7.450;2022-12-05T01:28:05;30.87;;;18.20;;
19291;SDS011;9779;51.756;7.450;2022-12-05T01:30:31;34.17;;;18.37;;
19291;SDS011;9779;51.756;7.450;2022-12-05T01:32:57;30.93;;;18.63;;
19291;SDS011;9779;51.756;7.450;2022-12-05T01:35:23;32.60;;;18.20;;
19291;SDS011;9779;51.756;7.450;2022-12-05T01:37:49;30.03;;;18.13;;
19291;SDS011;9779;51.756;7.450;2022-12-05T01:40:15;33.97;;;18.57;;
19291;SDS011;9779;51.756;7.450;2022-12-05T01:42:41;34.67;;;18.07;;
19291;SDS011;9779;51.756;7.450;2022-12-05T01:45:15;33.97;;;17.93;;
19291;SDS011;9779;51.756;7.450;2022-12-05T01:47:42;35.40;;;17.90;;
19291;SDS011;9779;51.756;7.450;2022-12-05T01:50:09;37.37;;;18.57;;
19291;SDS011;9779;51.756;7.450;2022-12-05T01:52:36;32.87;;;18.63;;
19291;SDS011;9779;51.756;7.450;2022-12-05T01:55:05;31.40;;;18.17;;
19291;SDS011;9779;51.756;7.450;2022-12-05T01:57:34;31.73;;;17.97;;
19291;SDS011;9779;51.756;7.450;2022-12-05T02:00:03;30.43;;;17.17;;
19291;SDS011;9779;51.756;7.450;2022-12-05T02:02:33;28.33;;;17.50;;
19291;SDS011;9779;51.756;7.450;2022-12-05T02:05:01;30.63;;;18.20;;
19291;SDS011;9779;51.756;7.450;2022-12-05T02:07:30;31.30;;;18.90;;
19291;SDS011;9779;51.756;7.450;2022-12-05T02:09:57;33.27;;;19.00;;
19291;SDS011;9779;51.756;7.450;2022-12-05T02:12:23;32.50;;;18.13;;
19291;SDS011;9779;51.756;7.450;2022-12-05T02:17:23;31.13;;;17.87;;
19291;SDS011;9779;51.756;7.450;2022-12-05T02:25:57;31.83;;;19.00;;
19291;SDS011;9779;51.756;7.450;2022-12-05T02:31:47;28.07;;;17.20;;
19291;SDS011;9779;51.756;7.450;2022-12-05T02:34:23;33.20;;;18.30;;
19291;SDS011;9779;51.756;7.450;2022-12-05T02:39:52;34.17;;;18.50;;
19291;SDS011;9779;51.756;7.450;2022-12-05T02:42:29;32.27;;;17.43;;
19291;SDS011;9779;51.756;7.450;2022-12-05T02:45:18;31.10;;;18.40;;
19291;SDS011;9779;51.756;7.450;2022-12-05T02:47:46;29.17;;;17.93;;
19291;SDS011;9779;51.756;7.450;2022-12-05T02:50:16;31.03;;;17.83;;
19291;SDS011;9779;51.756;7.450;2022-12-05T02:52:45;30.67;;;17.80;;
19291;SDS011;9779;51.756;7.450;2022-12-05T02:55:14;26.30;;;16.97;;
19291;SDS011;9779;51.756;7.450;2022-12-05T02:57:42;27.97;;;18.00;;
19291;SDS011;9779;51.756;7.450;2022-12-05T03:00:12;32.83;;;17.97;;
19291;SDS011;9779;51.756;7.450;2022-12-05T03:02:38;32.57;;;18.27;;
19291;SDS011;9779;51.756;7.450;2022-12-05T03:05:21;27.37;;;16.93;;
19291;SDS011;9779;51.756;7.450;2022-12-05T03:08:07;28.60;;;17.43;;
19291;SDS011;9779;51.756;7.450;2022-12-05T03:10:37;29.03;;;17.03;;
19291;SDS011;9779;51.756;7.450;2022-12-05T03:13:09;29.37;;;17.63;;
19291;SDS011;9779;51.756;7.450;2022-12-05T03:15:41;29.20;;;17.50;;
19291;SDS011;9779;51.756;7.450;2022-12-05T03:18:25;27.50;;;18.10;;
19291;SDS011;9779;51.756;7.450;2022-12-05T03:21:04;28.90;;;17.47;;
19291;SDS011;9779;51.756;7.450;2022-12-05T03:23:52;28.07;;;16.47;;
19291;SDS011;9779;51.756;7.450;2022-12-05T03:29:16;29.17;;;16.57;;
19291;SDS011;9779;51.756;7.450;2022-12-05T03:45:46;22.77;;;15.97;;
19291;SDS011;9779;51.756;7.450;2022-12-05T03:48:18;25.70;;;15.33;;
19291;SDS011;9779;51.756;7.450;2022-12-05T03:50:48;24.67;;;15.70;;
19291;SDS011;9779;51.756;7.450;2022-12-05T03:53:27;27.80;;;16.00;;
19291;SDS011;9779;51.756;7.450;2022-12-05T03:56:00;28.33;;;16.27;;
19291;SDS011;9779;51.756;7.450;2022-12-05T03:58:34;22.80;;;14.93;;
19291;SDS011;9779;51.756;7.450;2022-12-05T04:01:05;28.73;;;17.17;;
19291;SDS011;9779;51.756;7.450;2022-12-05T04:03:39;27.63;;;17.13;;
19291;SDS011;9779;51.756;7.450;2022-12-05T04:06:09;27.47;;;17.23;;
19291;SDS011;9779;51.756;7.450;2022-12-05T04:08:42;28.33;;;17.57;;
19291;SDS011;9779;51.756;7.450;2022-12-05T04:11:15;27.97;;;17.60;;
19291;SDS011;9779;51.756;7.450;2022-12-05T04:18:57;23.20;;;15.17;;
19291;SDS011;9779;51.756;7.450;2022-12-05T04:21:29;22.80;;;15.53;;
19291;SDS011;9779;51.756;7.450;2022-12-05T04:24:06;23.27;;;15.63;;
19291;SDS011;9779;51.756;7.450;2022-12-05T04:27:03;22.67;;;14.63;;
19291;SDS011;9779;51.756;7.450;2022-12-05T04:35:53;26.20;;;15.30;;
19291;SDS011;9779;51.756;7.450;2022-12-05T04:38:31;21.60;;;15.27;;
19291;SDS011;9779;51.756;7.450;2022-12-05T04:41:24;24.60;;;15.67;;
19291;SDS011;9779;51.756;7.450;2022-12-05T04:43:54;22.57;;;15.10;;
19291;SDS011;9779;51.756;7.450;2022-12-05T04:46:23;24.43;;;14.80;;
19291;SDS011;9779;51.756;7.450;2022-12-05T04:48:50;23.87;;;15.60;;
19291;SDS011;9779;51.756;7.450;2022-12-05T04:51:21;25.27;;;15.57;;
19291;SDS011;9779;51.756;7.450;2022-12-05T04:53:51;23.77;;;14.70;;
19291;SDS011;9779;51.756;7.450;2022-12-05T04:56:19;26.03;;;15.67;;
19291;SDS011;9779;51.756;7.450;2022-12-05T04:58:48;25.07;;;15.40;;
19291;SDS011;9779;51.756;7.450;2022-12-05T05:01:16;19.43;;;14.43;;
19291;SDS011;9779;51.756;7.450;2022-12-05T05:04:30;20.30;;;14.73;;
19291;SDS011;9779;51.756;7.450;2022-12-05T05:06:41;23.53;;;14.90;;
19291;SDS011;9779;51.756;7.450;2022-12-05T05:09:08;19.50;;;13.73;;
19291;SDS011;9779;51.756;7.450;2022-12-05T05:11:34;19.13;;;14.40;;
19291;SDS011;9779;51.756;7.450;2022-12-05T05:14:01;21.43;;;13.97;;
19291;SDS011;9779;51.756;7.450;2022-12-05T05:16:31;19.67;;;14.07;;
19291;SDS011;9779;51.756;7.450;2022-12-05T05:18:59;20.07;;;13.43;;
19291;SDS011;9779;51.756;7.450;2022-12-05T05:21:31;15.27;;;13.13;;
19291;SDS011;9779;51.756;7.450;2022-12-05T05:24:02;18.90;;;13.47;;
19291;SDS011;9779;51.756;7.450;2022-12-05T05:26:29;19.50;;;12.73;;
19291;SDS011;9779;51.756;7.450;2022-12-05T05:28:57;20.33;;;13.80;;
19291;SDS011;9779;51.756;7.450;2022-12-05T05:31:23;20.50;;;13.70;;
19291;SDS011;9779;51.756;7.450;2022-12-05T05:33:50;16.40;;;12.17;;
19291;SDS011;9779;51.756;7.450;2022-12-05T05:36:17;17.33;;;12.90;;
19291;SDS011;9779;51.756;7.450;2022-12-05T05:38:44;18.10;;;12.73;;
19291;SDS011;9779;51.756;7.450;2022-12-05T05:41:13;17.50;;;12.70;;
19291;SDS011;9779;51.756;7.450;2022-12-05T05:43:39;19.43;;;13.87;;
19291;SDS011;9779;51.756;7.450;2022-12-05T05:46:05;15.33;;;12.83;;
19291;SDS011;9779;51.756;7.450;2022-12-05T05:48:30;16.47;;;11.93;;
19291;SDS011;9779;51.756;7.450;2022-12-05T05:50:59;16.83;;;12.50;;
19291;SDS011;9779;51.756;7.450;2022-12-05T05:53:26;19.63;;;12.93;;
19291;SDS011;9779;51.756;7.450;2022-12-05T05:55:52;17.17;;;12.53;;
19291;SDS011;9779;51.756;7.450;2022-12-05T05:58:18;17.67;;;11.67;;
19291;SDS011;9779;51.756;7.450;2022-12-05T06:00:43;18.27;;;12.83;;
19291;SDS011;9779;51.756;7.450;2022-12-05T06:03:09;18.63;;;11.70;;
19291;SDS011;9779;51.756;7.450;2022-12-05T06:05:34;17.27;;;12.90;;
19291;SDS011;9779;51.756;7.450;2022-12-05T06:08:00;15.07;;;11.73;;
19291;SDS011;9779;51.756;7.450;2022-12-05T06:10:26;16.03;;;12.47;;
19291;SDS011;9779;51.756;7.450;2022-12-05T06:12:53;15.23;;;11.23;;
19291;SDS011;9779;51.756;7.450;2022-12-05T06:15:19;15.80;;;12.23;;
19291;SDS011;9779;51.756;7.450;2022-12-05T06:17:44;14.97;;;12.37;;
19291;SDS011;9779;51.756;7.450;2022-12-05T06:20:10;16.27;;;11.93;;
19291;SDS011;9779;51.756;7.450;2022-12-05T06:22:36;17.53;;;11.70;;
19291;SDS011;9779;51.756;7.450;2022-12-05T06:25:01;12.57;;;10.57;;
19291;SDS011;9779;51.756;7.450;2022-12-05T06:27:28;16.57;;;11.67;;
19291;SDS011;9779;51.756;7.450;2022-12-05T06:29:55;15.30;;;12.03;;
19291;SDS011;9779;51.756;7.450;2022-12-05T06:32:20;15.50;;;12.70;;
19291;SDS011;9779;51.756;7.450;2022-12-05T06:34:46;12.33;;;10.87;;
19291;SDS011;9779;51.756;7.450;2022-12-05T06:37:12;13.17;;;10.83;;
19291;SDS011;9779;51.756;7.450;2022-12-05T06:39:37;11.90;;;10.67;;
19291;SDS011;9779;51.756;7.450;2022-12-05T06:42:03;12.87;;;11.13;;
19291;SDS011;9779;51.756;7.450;2022-12-05T06:44:29;12.33;;;11.03;;
19291;SDS011;9779;51.756;7.450;2022-12-05T06:46:54;14.87;;;11.60;;
19291;SDS011;9779;51.756;7.450;2022-12-05T06:49:21;14.10;;;11.50;;
19291;SDS011;9779;51.756;7.450;2022-12-05T06:51:50;14.50;;;10.27;;
19291;SDS011;9779;51.756;7.450;2022-12-05T06:54:16;11.80;;;10.53;;
19291;SDS011;9779;51.756;7.450;2022-12-05T06:56:41;13.53;;;10.47;;
19291;SDS011;9779;51.756;7.450;2022-12-05T06:59:07;12.80;;;10.77;;
19291;SDS011;9779;51.756;7.450;2022-12-05T07:01:32;14.00;;;11.67;;
19291;SDS011;9779;51.756;7.450;2022-12-05T07:06:38;15.47;;;10.80;;
19291;SDS011;9779;51.756;7.450;2022-12-05T07:09:06;11.57;;;10.47;;
19291;SDS011;9779;51.756;7.450;2022-12-05T07:11:32;14.93;;;10.30;;
19291;SDS011;9779;51.756;7.450;2022-12-05T07:13:58;12.20;;;10.33;;
19291;SDS011;9779;51.756;7.450;2022-12-05T07:16:24;11.20;;;10.03;;
19291;SDS011;9779;51.756;7.450;2022-12-05T07:18:49;14.33;;;10.13;;
19291;SDS011;9779;51.756;7.450;2022-12-05T07:21:15;11.70;;;10.13;;
19291;SDS011;9779;51.756;7.450;2022-12-05T07:23:42;10.07;;;9.07;;
19291;SDS011;9779;51.756;7.450;2022-12-05T07:26:19;11.70;;;9.83;;
19291;SDS011;9779;51.756;7.450;2022-12-05T07:28:47;12.90;;;9.67;;
19291;SDS011;9779;51.756;7.450;2022-12-05T07:31:15;11.30;;;10.20;;
19291;SDS011;9779;51.756;7.450;2022-12-05T07:33:42;10.50;;;9.60;;
19291;SDS011;9779;51.756;7.450;2022-12-05T07:36:12;10.90;;;9.80;;
19291;SDS011;9779;51.756;7.450;2022-12-05T07:38:43;10.07;;;9.03;;
19291;SDS011;9779;51.756;7.450;2022-12-05T07:41:10;14.13;;;9.73;;
19291;SDS011;9779;51.756;7.450;2022-12-05T07:43:40;9.97;;;9.07;;
19291;SDS011;9779;51.756;7.450;2022-12-05T07:46:06;11.60;;;10.40;;
19291;SDS011;9779;51.756;7.450;2022-12-05T07:48:35;9.90;;;9.00;;
19291;SDS011;9779;51.756;7.450;2022-12-05T07:51:01;11.93;;;10.10;;
19291;SDS011;9779;51.756;7.450;2022-12-05T07:53:29;11.80;;;9.53;;
19291;SDS011;9779;51.756;7.450;2022-12-05T07:55:57;11.47;;;10.10;;
19291;SDS011;9779;51.756;7.450;2022-12-05T07:58:24;10.47;;;9.50;;
19291;SDS011;9779;51.756;7.450;2022-12-05T08:00:49;10.63;;;9.67;;
19291;SDS011;9779;51.756;7.450;2022-12-05T08:03:15;9.87;;;9.00;;
19291;SDS011;9779;51.756;7.450;2022-12-05T08:05:40;12.57;;;9.47;;
19291;SDS011;9779;51.756;7.450;2022-12-05T08:08:06;10.47;;;9.03;;
19291;SDS011;9779;51.756;7.450;2022-12-05T08:10:32;12.07;;;10.07;;
19291;SDS011;9779;51.756;7.450;2022-12-05T08:12:59;10.77;;;9.87;;
19291;SDS011;9779;51.756;7.450;2022-12-05T08:15:25;11.57;;;10.13;;
19291;SDS011;9779;51.756;7.450;2022-12-05T08:17:50;10.43;;;8.87;;
19291;SDS011;9779;51.756;7.450;2022-12-05T08:20:16;11.07;;;9.97;;
19291;SDS011;9779;51.756;7.450;2022-12-05T08:22:41;10.50;;;9.57;;
19291;SDS011;9779;51.756;7.450;2022-12-05T08:25:07;10.87;;;9.67;;
19291;SDS011;9779;51.756;7.450;2022-12-05T08:27:33;10.23;;;9.43;;
19291;SDS011;9779;51.756;7.450;2022-12-05T08:29:59;9.93;;;9.23;;
19291;SDS011;9779;51.756;7.450;2022-12-05T08:32:24;9.47;;;8.67;;
19291;SDS011;9779;51.756;7.450;2022-12-05T08:34:51;10.13;;;8.97;;
19291;SDS011;9779;51.756;7.450;2022-12-05T08:37:16;10.30;;;9.20;;
19291;SDS011;9779;51.756;7.450;2022-12-05T08:39:42;10.33;;;9.37;;
19291;SDS011;9779;51.756;7.450;2022-12-05T08:42:08;10.33;;;9.43;;
19291;SDS011;9779;51.756;7.450;2022-12-05T08:44:33;11.70;;;9.50;;
19291;SDS011;9779;51.756;7.450;2022-12-05T08:46:59;11.10;;;9.93;;
19291;SDS011;9779;51.756;7.450;2022-12-05T08:49:25;10.47;;;9.67;;
19291;SDS011;9779;51.756;7.450;2022-12-05T08:51:50;12.07;;;9.97;;
19291;SDS011;9779;51.756;7.450;2022-12-05T08:54:16;12.07;;;10.67;;
19291;SDS011;9779;51.756;7.450;2022-12-05T08:56:42;12.03;;;10.53;;
19291;SDS011;9779;51.756;7.450;2022-12-05T08:59:07;10.47;;;9.57;;
19291;SDS011;9779;51.756;7.450;2022-12-05T09:01:33;11.90;;;10.70;;
19291;SDS011;9779;51.756;7.450;2022-12-05T09:04:02;10.90;;;9.30;;
19291;SDS011;9779;51.756;7.450;2022-12-05T09:06:29;10.80;;;9.70;;
19291;SDS011;9779;51.756;7.450;2022-12-05T09:08:57;11.10;;;10.00;;
19291;SDS011;9779;51.756;7.450;2022-12-05T09:11:25;10.13;;;9.23;;
19291;SDS011;9779;51.756;7.450;2022-12-05T09:13:53;11.40;;;10.23;;
19291;SDS011;9779;51.756;7.450;2022-12-05T09:16:23;15.40;;;9.87;;
19291;SDS011;9779;51.756;7.450;2022-12-05T09:18:50;11.13;;;10.07;;
19291;SDS011;9779;51.756;7.450;2022-12-05T09:21:18;11.80;;;10.53;;
19291;SDS011;9779;51.756;7.450;2022-12-05T09:23:45;10.67;;;9.57;;
19291;SDS011;9779;51.756;7.450;2022-12-05T09:26:12;10.33;;;9.27;;
19291;SDS011;9779;51.756;7.450;2022-12-05T09:28:40;12.30;;;11.00;;
19291;SDS011;9779;51.756;7.450;2022-12-05T09:31:08;10.83;;;9.77;;
19291;SDS011;9779;51.756;7.450;2022-12-05T09:33:36;11.57;;;10.30;;
19291;SDS011;9779;51.756;7.450;2022-12-05T09:36:06;11.13;;;9.97;;
19291;SDS011;9779;51.756;7.450;2022-12-05T09:38:35;11.77;;;10.57;;
19291;SDS011;9779;51.756;7.450;2022-12-05T09:43:42;8.50;;;7.73;;
19291;SDS011;9779;51.756;7.450;2022-12-05T09:46:29;12.03;;;10.83;;
19291;SDS011;9779;51.756;7.450;2022-12-05T09:49:16;12.10;;;10.77;;
19291;SDS011;9779;51.756;7.450;2022-12-05T09:51:43;13.90;;;11.33;;
19291;SDS011;9779;51.756;7.450;2022-12-05T09:54:12;14.93;;;10.33;;
19291;SDS011;9779;51.756;7.450;2022-12-05T09:56:38;11.23;;;10.13;;
19291;SDS011;9779;51.756;7.450;2022-12-05T09:59:08;11.07;;;10.00;;
19291;SDS011;9779;51.756;7.450;2022-12-05T10:01:54;11.37;;;10.30;;
19291;SDS011;9779;51.756;7.450;2022-12-05T10:07:40;11.00;;;9.90;;
19291;SDS011;9779;51.756;7.450;2022-12-05T10:16:04;13.37;;;12.03;;
19291;SDS011;9779;51.756;7.450;2022-12-05T10:23:53;15.47;;;13.37;;
19291;SDS011;9779;51.756;7.450;2022-12-05T10:26:22;13.97;;;12.57;;
19291;SDS011;9779;51.756;7.450;2022-12-05T10:29:36;13.47;;;12.07;;
19291;SDS011;9779;51.756;7.450;2022-12-05T10:32:19;12.83;;;11.07;;
19291;SDS011;9779;51.756;7.450;2022-12-05T10:34:51;19.80;;;12.47;;
19291;SDS011;9779;51.756;7.450;2022-12-05T10:37:24;12.33;;;11.00;;
19291;SDS011;9779;51.756;7.450;2022-12-05T10:39:50;12.93;;;11.40;;
19291;SDS011;9779;51.756;7.450;2022-12-05T10:42:21;15.03;;;10.90;;
19291;SDS011;9779;51.756;7.450;2022-12-05T10:44:57;10.83;;;9.77;;
19291;SDS011;9779;51.756;7.450;2022-12-05T10:47:26;13.73;;;10.57;;
19291;SDS011;9779;51.756;7.450;2022-12-05T10:49:55;14.17;;;12.30;;
19291;SDS011;9779;51.756;7.450;2022-12-05T10:52:22;12.80;;;11.50;;
19291;SDS011;9779;51.756;7.450;2022-12-05T10:54:50;14.97;;;13.40;;
19291;SDS011;9779;51.756;7.450;2022-12-05T10:57:27;12.13;;;11.00;;
19291;SDS011;9779;51.756;7.450;2022-12-05T10:59:57;12.67;;;11.00;;
19291;SDS011;9779;51.756;7.450;2022-12-05T11:02:33;12.67;;;11.43;;
19291;SDS011;9779;51.756;7.450;2022-12-05T11:05:00;12.40;;;11.20;;
19291;SDS011;9779;51.756;7.450;2022-12-05T11:07:29;12.37;;;11.17;;
19291;SDS011;9779;51.756;7.450;2022-12-05T11:09:56;12.20;;;10.90;;
19291;SDS011;9779;51.756;7.450;2022-12-05T11:12:41;12.40;;;11.10;;
19291;SDS011;9779;51.756;7.450;2022-12-05T11:17:46;12.73;;;11.47;;
19291;SDS011;9779;51.756;7.450;2022-12-05T11:22:42;12.30;;;11.03;;
19291;SDS011;9779;51.756;7.450;2022-12-05T11:25:30;16.87;;;12.63;;
19291;SDS011;9779;51.756;7.450;2022-12-05T11:27:57;13.80;;;12.40;;
19291;SDS011;9779;51.756;7.450;2022-12-05T11:30:58;17.60;;;13.70;;
19291;SDS011;9779;51.756;7.450;2022-12-05T11:33:25;16.27;;;13.60;;
19291;SDS011;9779;51.756;7.450;2022-12-05T11:35:53;14.57;;;12.97;;
19291;SDS011;9779;51.756;7.450;2022-12-05T11:38:23;15.00;;;13.33;;
19291;SDS011;9779;51.756;7.450;2022-12-05T11:46:39;12.30;;;11.03;;
19291;SDS011;9779;51.756;7.450;2022-12-05T11:54:38;13.93;;;11.93;;
19291;SDS011;9779;51.756;7.450;2022-12-05T11:57:10;12.90;;;11.63;;
19291;SDS011;9779;51.756;7.450;2022-12-05T12:00:05;13.47;;;12.03;;
19291;SDS011;9779;51.756;7.450;2022-12-05T12:16:05;11.67;;;10.57;;
19291;SDS011;9779;51.756;7.450;2022-12-05T12:21:33;11.30;;;10.23;;
19291;SDS011;9779;51.756;7.450;2022-12-05T12:34:52;13.03;;;11.80;;
19291;SDS011;9779;51.756;7.450;2022-12-05T12:37:34;12.80;;;11.50;;
19291;SDS011;9779;51.756;7.450;2022-12-05T12:40:53;11.17;;;10.27;;
19291;SDS011;9779;51.756;7.450;2022-12-05T12:51:22;10.70;;;9.80;;
19291;SDS011;9779;51.756;7.450;2022-12-05T12:59:31;8.80;;;8.07;;
19291;SDS011;9779;51.756;7.450;2022-12-05T13:04:51;10.47;;;9.43;;
19291;SDS011;9779;51.756;7.450;2022-12-05T13:07:52;9.47;;;8.63;;
19291;SDS011;9779;51.756;7.450;2022-12-05T13:10:24;11.57;;;10.47;;
19291;SDS011;9779;51.756;7.450;2022-12-05T13:13:12;10.43;;;9.70;;
19291;SDS011;9779;51.756;7.450;2022-12-05T13:15:50;9.80;;;8.90;;
19291;SDS011;9779;51.756;7.450;2022-12-05T13:18:20;9.73;;;8.40;;
19291;SDS011;9779;51.756;7.450;2022-12-05T13:20:49;8.97;;;8.27;;
19291;SDS011;9779;51.756;7.450;2022-12-05T13:23:17;10.20;;;9.17;;
19291;SDS011;9779;51.756;7.450;2022-12-05T13:25:46;10.60;;;9.63;;
19291;SDS011;9779;51.756;7.450;2022-12-05T13:28:26;12.07;;;10.80;;
19291;SDS011;9779;51.756;7.450;2022-12-05T13:30:54;10.30;;;9.43;;
19291;SDS011;9779;51.756;7.450;2022-12-05T13:33:23;10.43;;;9.50;;
19291;SDS011;9779;51.756;7.450;2022-12-05T13:36:02;11.07;;;9.27;;
19291;SDS011;9779;51.756;7.450;2022-12-05T13:39:40;8.77;;;8.00;;
19291;SDS011;9779;51.756;7.450;2022-12-05T13:42:04;8.23;;;7.70;;
19291;SDS011;9779;51.756;7.450;2022-12-05T13:50:15;8.10;;;7.60;;
19291;SDS011;9779;51.756;7.450;2022-12-05T13:52:47;11.30;;;10.40;;
19291;SDS011;9779;51.756;7.450;2022-12-05T13:58:02;10.57;;;9.83;;
19291;SDS011;9779;51.756;7.450;2022-12-05T14:00:39;8.87;;;7.90;;
19291;SDS011;9779;51.756;7.450;2022-12-05T14:03:08;8.30;;;7.70;;
19291;SDS011;9779;51.756;7.450;2022-12-05T14:05:43;8.07;;;7.53;;
19291;SDS011;9779;51.756;7.450;2022-12-05T14:15:46;11.30;;;10.17;;
19291;SDS011;9779;51.756;7.450;2022-12-05T14:21:10;11.80;;;10.77;;
19291;SDS011;9779;51.756;7.450;2022-12-05T14:26:38;9.07;;;8.43;;
19291;SDS011;9779;51.756;7.450;2022-12-05T14:32:18;8.23;;;7.70;;
19291;SDS011;9779;51.756;7.450;2022-12-05T14:35:11;7.00;;;6.60;;
19291;SDS011;9779;51.756;7.450;2022-12-05T14:37:56;7.30;;;6.80;;
19291;SDS011;9779;51.756;7.450;2022-12-05T14:42:59;11.30;;;10.23;;
19291;SDS011;9779;51.756;7.450;2022-12-05T14:45:39;12.50;;;11.23;;
19291;SDS011;9779;51.756;7.450;2022-12-05T14:50:39;9.57;;;8.73;;
19291;SDS011;9779;51.756;7.450;2022-12-05T15:01:00;20.10;;;13.57;;
19291;SDS011;9779;51.756;7.450;2022-12-05T15:03:31;23.00;;;14.70;;
19291;SDS011;9779;51.756;7.450;2022-12-05T15:06:03;13.70;;;10.73;;
19291;SDS011;9779;51.756;7.450;2022-12-05T15:08:38;7.47;;;6.93;;
19291;SDS011;9779;51.756;7.450;2022-12-05T15:11:15;7.43;;;6.83;;
19291;SDS011;9779;51.756;7.450;2022-12-05T15:13:52;6.43;;;5.83;;
19291;SDS011;9779;51.756;7.450;2022-12-05T15:16:24;6.57;;;6.17;;
19291;SDS011;9779;51.756;7.450;2022-12-05T15:18:55;5.33;;;5.03;;
19291;SDS011;9779;51.756;7.450;2022-12-05T15:21:40;5.80;;;5.40;;
19291;SDS011;9779;51.756;7.450;2022-12-05T15:24:13;5.20;;;4.90;;
19291;SDS011;9779;51.756;7.450;2022-12-05T15:26:44;42.27;;;19.90;;
19291;SDS011;9779;51.756;7.450;2022-12-05T15:34:17;7.47;;;6.87;;
19291;SDS011;9779;51.756;7.450;2022-12-05T15:42:22;5.63;;;5.23;;
19291;SDS011;9779;51.756;7.450;2022-12-05T15:44:50;4.50;;;4.20;;
19291;SDS011;9779;51.756;7.450;2022-12-05T15:47:22;4.93;;;4.63;;
19291;SDS011;9779;51.756;7.450;2022-12-05T15:49:50;4.03;;;3.83;;
19291;SDS011;9779;51.756;7.450;2022-12-05T15:54:59;5.23;;;4.67;;
19291;SDS011;9779;51.756;7.450;2022-12-05T16:00:36;4.90;;;4.60;;
19291;SDS011;9779;51.756;7.450;2022-12-05T16:03:07;6.03;;;5.63;;
19291;SDS011;9779;51.756;7.450;2022-12-05T16:05:40;6.00;;;5.60;;
19291;SDS011;9779;51.756;7.450;2022-12-05T16:08:41;5.90;;;5.50;;
19291;SDS011;9779;51.756;7.450;2022-12-05T16:11:08;5.67;;;5.27;;
19291;SDS011;9779;51.756;7.450;2022-12-05T16:13:34;6.30;;;5.80;;
19291;SDS011;9779;51.756;7.450;2022-12-05T16:16:06;6.87;;;6.37;;
19291;SDS011;9779;51.756;7.450;2022-12-05T16:18:32;6.43;;;5.93;;
19291;SDS011;9779;51.756;7.450;2022-12-05T16:20:58;5.90;;;5.40;;
19291;SDS011;9779;51.756;7.450;2022-12-05T16:23:27;5.83;;;5.33;;
19291;SDS011;9779;51.756;7.450;2022-12-05T16:28:36;6.13;;;5.73;;
19291;SDS011;9779;51.756;7.450;2022-12-05T16:31:03;5.30;;;5.00;;
19291;SDS011;9779;51.756;7.450;2022-12-05T16:33:29;5.83;;;5.40;;
19291;SDS011;9779;51.756;7.450;2022-12-05T16:36:05;5.20;;;4.80;;
19291;SDS011;9779;51.756;7.450;2022-12-05T16:38:35;5.70;;;5.30;;
19291;SDS011;9779;51.756;7.450;2022-12-05T16:41:05;6.43;;;6.03;;
19291;SDS011;9779;51.756;7.450;2022-12-05T16:48:37;7.83;;;7.23;;
19291;SDS011;9779;51.756;7.450;2022-12-05T16:53:48;7.07;;;6.50;;
19291;SDS011;9779;51.756;7.450;2022-12-05T16:56:17;6.13;;;5.73;;
19291;SDS011;9779;51.756;7.450;2022-12-05T16:58:51;7.03;;;6.37;;
19291;SDS011;9779;51.756;7.450;2022-12-05T17:01:18;5.97;;;5.57;;
19291;SDS011;9779;51.756;7.450;2022-12-05T17:03:46;6.20;;;5.70;;
19291;SDS011;9779;51.756;7.450;2022-12-05T17:06:12;5.60;;;5.20;;
19291;SDS011;9779;51.756;7.450;2022-12-05T17:08:38;5.73;;;5.33;;
19291;SDS011;9779;51.756;7.450;2022-12-05T17:11:04;5.33;;;5.00;;
19291;SDS011;9779;51.756;7.450;2022-12-05T17:13:42;5.80;;;5.30;;
19291;SDS011;9779;51.756;7.450;2022-12-05T17:16:09;5.80;;;5.40;;
19291;SDS011;9779;51.756;7.450;2022-12-05T17:18:35;5.77;;;5.27;;
19291;SDS011;9779;51.756;7.450;2022-12-05T17:21:00;5.10;;;4.80;;
19291;SDS011;9779;51.756;7.450;2022-12-05T17:23:26;5.40;;;5.00;;
19291;SDS011;9779;51.756;7.450;2022-12-05T17:25:53;5.10;;;4.80;;
19291;SDS011;9779;51.756;7.450;2022-12-05T17:28:20;6.40;;;5.80;;
19291;SDS011;9779;51.756;7.450;2022-12-05T17:30:47;5.57;;;5.27;;
19291;SDS011;9779;51.756;7.450;2022-12-05T17:33:13;6.10;;;5.60;;
19291;SDS011;9779;51.756;7.450;2022-12-05T17:35:41;6.73;;;6.30;;
19291;SDS011;9779;51.756;7.450;2022-12-05T17:38:07;7.20;;;6.70;;
19291;SDS011;9779;51.756;7.450;2022-12-05T17:40:34;7.93;;;7.33;;
19291;SDS011;9779;51.756;7.450;2022-12-05T17:43:00;10.83;;;9.93;;
19291;SDS011;9779;51.756;7.450;2022-12-05T17:45:26;8.63;;;8.00;;
19291;SDS011;9779;51.756;7.450;2022-12-05T17:47:51;9.07;;;8.40;;
19291;SDS011;9779;51.756;7.450;2022-12-05T17:50:19;9.63;;;8.90;;
19291;SDS011;9779;51.756;7.450;2022-12-05T17:52:46;9.23;;;8.53;;
19291;SDS011;9779;51.756;7.450;2022-12-05T17:55:17;9.03;;;8.33;;
19291;SDS011;9779;51.756;7.450;2022-12-05T17:57:47;8.77;;;7.97;;
19291;SDS011;9779;51.756;7.450;2022-12-05T18:00:14;8.87;;;8.03;;
19291;SDS011;9779;51.756;7.450;2022-12-05T18:02:41;8.50;;;7.80;;
19291;SDS011;9779;51.756;7.450;2022-12-05T18:05:09;8.60;;;8.07;;
19291;SDS011;9779;51.756;7.450;2022-12-05T18:07:36;7.60;;;7.10;;
19291;SDS011;9779;51.756;7.450;2022-12-05T18:10:04;8.87;;;8.17;;